VBRA4: Lee Creek, Van Buren

                                SHEF ID:       VBRA4     Lee Creek at Lee Creek Reservoir
STATION TYPE: Stream Gauge
Regulating: Stage = 17.00, Flow = 0

PRECIP STAGE RIV-FLOW BAT-LOAD
in ft cfs volt
Ccp-Rev Ccp-Rev Ccp-Rev Ccp-Rev
(America/Chicago)
04/29 00:00 0.00 20.25 321 12.21
04/29 01:00 0.00 20.26 342 12.19
04/29 02:00 0.00 20.26 342 12.17
04/29 03:00 0.00 20.25 321 12.14
04/29 04:00 0.00 20.21 242 12.13
04/29 05:00 0.00 20.27 364 12.12
04/29 06:00 0.00 20.29 409 12.11
04/29 07:00 0.00 20.31 456 12.11
04/29 08:00 0.00 20.33 505 12.12
04/29 09:00 0.00 20.34 530 12.14
04/29 10:00 0.00 20.37 608 12.18
04/29 11:00 0.00 20.41 718 12.21
04/29 12:00 0.00 20.45 836 12.30
04/29 13:00 0.00 20.49 960 12.44
04/29 14:00 0.00 20.52 1057 12.66
04/29 15:00 0.00 20.52 1057 12.64
04/29 16:00 0.00 20.52 1057 12.54
04/29 17:00 0.00 20.51 1024 12.62
04/29 18:00 0.00 20.50 992 12.51
04/29 19:00 0.00 20.48 928 12.40
04/29 20:00 0.00 20.47 897 12.31
04/29 21:00 0.00 20.47 897 12.29
04/29 22:00 0.00 20.46 866 12.27
04/29 23:00 ---- ---- ---- ----
Data processed at Thu 30Apr2026 04:57 GMT

NOTICE: If you are parsing this page

Please convert to using our Data API. Starting early 2026 we will be migrating to: https://water.usace.army.mil with modern pages rendered in JavaScript. When this migration completes you will no longer be able to scrape this page! CWMSDataAPI (CDA)

Timeseries IDs (TSIDs)

TSIDs used from left to right in the data table
VANL.Precip-Inc.Total.1Hour.1Hour.Ccp-Rev
VANL.Stage.Inst.1Hour.0.Ccp-Rev
VANL.Flow.Inst.1Hour.0.Ccp-Rev
VANL.Volt-Battery Load.Inst.1Hour.0.Ccp-Rev

                            

All information presented herein is the property of the government of the United States of America and may be revised or deleted at any time without prior notice. Dissemination of this information without the expressed written consent of the Public Affairs Office, Tulsa District U.S. Army Corps of Engineers is strictly prohibited. These data are gathered electronically and, as presented, have NOT undergone any form of quality control. These data are NOT guaranteed to be valid or correct.